createdAt,value
2018-12-25T00:00:09.427Z,3.00
2018-12-25T00:05:16.352Z,2.90
2018-12-25T00:10:21.689Z,2.90
2018-12-25T00:15:26.986Z,2.80
2018-12-25T00:20:33.367Z,2.70
2018-12-25T00:25:38.750Z,2.80
2018-12-25T00:30:44.055Z,2.70
2018-12-25T00:35:49.374Z,2.60
2018-12-25T00:40:54.687Z,2.40
2018-12-25T00:46:00.006Z,2.30
2018-12-25T00:51:05.311Z,2.20
2018-12-25T00:56:10.602Z,2.10
2018-12-25T01:01:15.829Z,1.90
2018-12-25T01:06:21.127Z,1.90
2018-12-25T01:11:26.435Z,1.80
2018-12-25T01:16:31.748Z,1.70
2018-12-25T01:21:37.059Z,1.70
2018-12-25T01:26:42.358Z,1.70
2018-12-25T01:31:47.639Z,1.70
2018-12-25T01:36:52.931Z,1.70
2018-12-25T01:41:58.251Z,1.70
2018-12-25T01:47:03.748Z,1.80
2018-12-25T01:52:09.055Z,1.80
2018-12-25T01:57:14.344Z,1.70
2018-12-25T02:02:19.663Z,1.70
2018-12-25T02:07:24.952Z,1.80
2018-12-25T02:12:30.263Z,1.80
2018-12-25T02:17:35.597Z,1.80
2018-12-25T02:22:40.908Z,1.80
2018-12-25T02:27:46.240Z,1.80
2018-12-25T02:32:51.553Z,1.80
2018-12-25T02:37:56.875Z,1.80
2018-12-25T02:43:02.206Z,1.80
2018-12-25T02:48:07.508Z,1.80
2018-12-25T02:53:12.799Z,1.80
2018-12-25T02:58:18.095Z,1.80
2018-12-25T03:03:23.391Z,1.70
2018-12-25T03:08:28.709Z,1.70
2018-12-25T03:13:34.011Z,1.70
2018-12-25T03:18:39.369Z,1.70
2018-12-25T03:23:44.675Z,1.70
2018-12-25T03:28:49.971Z,1.80
2018-12-25T03:33:55.282Z,1.70
2018-12-25T03:39:00.897Z,1.80
2018-12-25T03:44:07.755Z,1.80
2018-12-25T03:49:13.053Z,1.80
2018-12-25T03:54:18.363Z,1.80
2018-12-25T03:59:23.660Z,1.80
2018-12-25T04:04:28.945Z,1.70
2018-12-25T04:09:34.252Z,1.70
2018-12-25T04:14:39.565Z,1.70
2018-12-25T04:19:44.885Z,1.60
2018-12-25T04:24:50.193Z,1.60
2018-12-25T04:29:55.505Z,1.70
2018-12-25T04:35:00.812Z,1.70
2018-12-25T04:40:06.248Z,1.70
2018-12-25T04:45:11.542Z,1.70
2018-12-25T04:50:16.832Z,1.60
2018-12-25T04:55:22.126Z,1.70
2018-12-25T05:00:27.431Z,1.60
2018-12-25T05:05:32.732Z,1.60
2018-12-25T05:10:38.040Z,1.60
2018-12-25T05:15:43.368Z,1.60
2018-12-25T05:20:48.804Z,1.60
2018-12-25T05:25:54.109Z,1.60
2018-12-25T05:31:00.260Z,1.60
2018-12-25T05:36:05.563Z,1.60
2018-12-25T05:41:10.873Z,1.60
2018-12-25T05:46:16.155Z,1.60
2018-12-25T05:51:21.470Z,1.60
2018-12-25T05:56:26.761Z,1.50
2018-12-25T06:01:32.047Z,1.50
2018-12-25T06:06:37.352Z,1.50
2018-12-25T06:11:42.654Z,1.50
2018-12-25T06:16:47.975Z,1.50
2018-12-25T06:21:53.296Z,1.40
2018-12-25T06:26:58.594Z,1.40
2018-12-25T06:32:03.911Z,1.40
2018-12-25T06:37:09.225Z,1.40
2018-12-25T06:42:14.527Z,1.30
2018-12-25T06:47:19.830Z,1.20
2018-12-25T06:52:25.059Z,1.10
2018-12-25T06:57:30.368Z,1.10
2018-12-25T07:02:35.677Z,1.00
2018-12-25T07:07:40.983Z,1.00
2018-12-25T07:12:46.275Z,0.90
2018-12-25T07:17:51.602Z,0.90
2018-12-25T07:22:56.940Z,0.90
2018-12-25T07:28:02.255Z,0.90
2018-12-25T07:33:07.575Z,0.90
2018-12-25T07:38:13.928Z,0.90
2018-12-25T07:43:19.220Z,1.00
2018-12-25T07:48:24.505Z,1.00
2018-12-25T07:53:29.795Z,1.10
2018-12-25T07:58:35.087Z,1.20
2018-12-25T08:03:40.397Z,1.30
2018-12-25T08:08:45.699Z,1.40
2018-12-25T09:03:49.883Z,1.80
2018-12-25T09:08:55.186Z,1.80
2018-12-25T09:14:00.493Z,1.90
2018-12-25T09:19:06.897Z,1.70
2018-12-25T09:24:12.203Z,1.80
2018-12-25T09:29:17.516Z,1.80
2018-12-25T09:34:22.827Z,1.80
2018-12-25T09:39:28.136Z,1.80
2018-12-25T09:44:33.436Z,1.80
2018-12-25T09:49:38.750Z,1.80
2018-12-25T09:54:43.988Z,1.80
2018-12-25T09:59:49.286Z,1.70
2018-12-25T10:04:56.550Z,1.70
2018-12-25T10:10:01.508Z,1.70
2018-12-25T10:15:07.023Z,1.70
2018-12-25T10:20:12.362Z,1.70
2018-12-25T10:25:17.664Z,1.70
2018-12-25T10:30:23.043Z,1.70
2018-12-25T10:35:28.339Z,1.70
2018-12-25T10:40:33.640Z,1.70
2018-12-25T10:45:38.950Z,1.70
2018-12-25T10:50:44.281Z,1.80
2018-12-25T10:55:49.614Z,1.70
2018-12-25T11:00:59.712Z,1.80
2018-12-25T11:06:05.025Z,1.80
2018-12-25T11:11:10.308Z,1.80
2018-12-25T11:16:15.595Z,1.80
2018-12-25T11:21:20.931Z,1.80
2018-12-25T11:26:26.235Z,1.90
2018-12-25T11:31:31.540Z,1.90
2018-12-25T11:36:36.842Z,1.90
2018-12-25T11:41:42.062Z,1.90
2018-12-25T11:46:47.422Z,2.00
2018-12-25T11:51:52.708Z,2.00
2018-12-25T11:56:58.097Z,2.00
2018-12-25T12:02:03.481Z,2.00
2018-12-25T12:07:08.787Z,2.00
2018-12-25T12:12:14.094Z,2.10
2018-12-25T12:17:19.414Z,2.10
2018-12-25T12:22:24.661Z,2.20
2018-12-25T12:27:29.963Z,2.20
2018-12-25T12:32:35.295Z,2.20
2018-12-25T12:37:40.634Z,2.20
2018-12-25T12:42:45.947Z,2.10
2018-12-25T12:47:51.279Z,2.10
2018-12-25T12:52:56.583Z,2.10
2018-12-25T12:58:01.893Z,2.10
2018-12-25T13:03:07.245Z,2.10
2018-12-25T13:08:12.548Z,2.10
2018-12-25T13:13:17.885Z,2.10
2018-12-25T13:18:23.203Z,2.00
2018-12-25T13:23:28.504Z,2.10
2018-12-25T13:28:33.817Z,2.10
2018-12-25T13:33:39.120Z,2.10
2018-12-25T13:38:45.499Z,2.20
2018-12-25T13:43:50.795Z,2.20
2018-12-25T13:48:56.110Z,2.20
2018-12-25T13:54:01.412Z,2.30
2018-12-25T13:59:06.715Z,2.30
2018-12-25T14:04:12.027Z,2.30
2018-12-25T14:09:17.496Z,2.30
2018-12-25T14:14:22.804Z,5.40
2018-12-25T14:19:28.119Z,2.30
2018-12-25T14:24:33.427Z,2.30
2018-12-25T14:29:38.723Z,2.30
2018-12-25T14:34:44.059Z,2.30
2018-12-25T14:39:49.402Z,2.30
2018-12-25T14:44:54.771Z,2.30
2018-12-25T14:50:00.110Z,2.20
2018-12-25T14:55:05.552Z,2.20
2018-12-25T15:00:11.127Z,2.20
2018-12-25T15:05:16.421Z,2.20
2018-12-25T15:10:21.784Z,2.20
2018-12-25T15:15:27.091Z,2.20
2018-12-25T15:20:32.411Z,2.20
2018-12-25T15:25:37.715Z,2.20
2018-12-25T15:30:43.044Z,2.30
2018-12-25T15:35:48.339Z,2.20
2018-12-25T15:40:53.643Z,2.20
2018-12-25T15:45:58.960Z,2.20
2018-12-25T15:51:04.274Z,2.20
2018-12-25T15:56:09.944Z,2.20
2018-12-25T16:01:15.264Z,2.20
2018-12-25T16:06:20.584Z,2.20
2018-12-25T16:11:25.920Z,2.20
2018-12-25T16:16:31.212Z,2.20
2018-12-25T16:21:36.567Z,2.20
2018-12-25T16:26:41.875Z,2.20
2018-12-25T16:31:47.168Z,2.20
2018-12-25T16:36:52.524Z,2.20
2018-12-25T16:41:57.833Z,2.20
2018-12-25T16:47:03.161Z,2.20
2018-12-25T16:52:08.454Z,2.20
2018-12-25T16:57:13.745Z,2.20
2018-12-25T17:02:19.065Z,2.20
2018-12-25T17:07:24.443Z,2.20
2018-12-25T17:12:29.812Z,2.20
2018-12-25T17:17:35.166Z,2.20
2018-12-25T17:22:40.515Z,2.20
2018-12-25T17:27:45.864Z,2.20
2018-12-25T17:32:51.184Z,2.10
2018-12-25T17:37:56.503Z,2.00
2018-12-25T17:43:01.905Z,1.90
2018-12-25T17:48:07.187Z,1.90
2018-12-25T17:53:12.496Z,1.70
2018-12-25T17:58:17.804Z,1.50
2018-12-25T18:03:23.150Z,1.40
2018-12-25T18:13:33.128Z,1.40
2018-12-25T18:18:38.516Z,1.40
2018-12-25T18:23:43.838Z,1.20
2018-12-25T18:28:49.227Z,1.20
2018-12-25T18:33:54.559Z,-0.70
2018-12-25T18:38:59.792Z,1.20
2018-12-25T18:44:05.360Z,1.20
2018-12-25T18:49:10.763Z,1.30
2018-12-25T18:54:16.074Z,1.30
2018-12-25T18:59:21.304Z,4.90
2018-12-25T19:04:26.963Z,1.40
2018-12-25T19:09:33.420Z,1.40
2018-12-25T19:14:52.023Z,1.40
2018-12-25T19:19:57.343Z,1.40
2018-12-25T19:25:02.676Z,1.40
2018-12-25T19:30:09.115Z,1.40
2018-12-25T19:35:14.491Z,1.40
2018-12-25T19:40:20.527Z,1.30
2018-12-25T19:45:25.897Z,1.30
2018-12-25T19:50:31.219Z,1.30
2018-12-25T19:55:36.534Z,1.40
2018-12-25T20:00:41.845Z,1.40
2018-12-25T20:06:26.387Z,1.30
2018-12-25T20:12:14.103Z,1.40
2018-12-25T20:18:05.339Z,1.40
2018-12-25T20:24:10.049Z,1.40
2018-12-25T20:29:51.188Z,1.40
2018-12-25T20:35:37.366Z,1.40
2018-12-25T20:41:18.487Z,1.40
2018-12-25T20:46:53.396Z,1.40
2018-12-25T20:52:29.947Z,1.40
2018-12-25T20:58:18.647Z,1.40
2018-12-25T21:03:59.760Z,1.30
2018-12-25T21:09:44.640Z,1.30
2018-12-25T21:15:18.949Z,1.20
2018-12-25T21:21:00.251Z,1.10
2018-12-25T21:26:41.805Z,1.00
2018-12-25T21:31:47.276Z,1.00
2018-12-25T21:36:52.907Z,1.00
2018-12-25T21:41:58.953Z,1.00
2018-12-25T21:47:04.356Z,1.00
2018-12-25T21:52:09.780Z,1.00
2018-12-25T21:57:15.313Z,1.00
2018-12-25T22:02:21.910Z,1.00
2018-12-25T22:07:27.225Z,1.00
2018-12-25T22:12:32.556Z,0.90
2018-12-25T22:17:37.979Z,0.80
2018-12-25T22:22:43.316Z,0.80
2018-12-25T22:27:48.634Z,0.80
2018-12-25T22:32:53.951Z,0.80
2018-12-25T22:37:59.188Z,0.90
2018-12-25T22:43:04.500Z,0.80
2018-12-25T22:48:09.807Z,0.80
2018-12-25T22:53:15.116Z,0.80
2018-12-25T22:58:20.440Z,0.80
2018-12-25T23:03:27.549Z,0.80
2018-12-25T23:08:32.713Z,0.90
2018-12-25T23:13:38.024Z,0.90
2018-12-25T23:18:43.367Z,0.90
2018-12-25T23:23:48.676Z,0.70
2018-12-25T23:28:54.124Z,0.60
2018-12-25T23:33:59.538Z,0.60
2018-12-25T23:39:06.964Z,0.40
2018-12-25T23:44:12.279Z,0.30
2018-12-25T23:49:17.611Z,0.20
2018-12-25T23:54:22.939Z,0.10
2018-12-25T23:59:28.230Z,0.10
